レシフェ の空港の天気 - METARとTAF

レシフェ・グアララペス国際空港 ( SBRF / REC ) - ブラジル ペルナンブーコ州レシフェ
飛行場実況気象(Metar)
観測時間01/19 08:00 BRT (01/19 11:00 UTC)
風向・風速東南東 4m/s
視程10km以上
天気現象
全天の4割程度の雲 雲底高度 700m
気温28℃
湿度74%
気圧1014hPa
METARSBRF 191100Z 12007KT 070V150 9999 SCT023 28/23 Q1014
過去の天気等 Google飛行場航空写真 Wunderground天気予報

過去48時間のMETAR

飛行場予報(TAF)
発表時間: 1/18 23:00 BRT (1/19 02:00 UTC)
予報対象時間: 19日3時 BRT ~ 20日3時 BRT
風向・風速東南東 4m/s
視程10km以上
全天の4割程度の雲 雲底高度 610m
TAF SBRF 190200Z 1906/2006 12008KT 9999 SCT020 TN25/1908Z TX29/1915Z RMK PEA